Time;durP1;ratioP1;P1;durP2;ratioP2;P2;SDS_P1;SDS_P2;PMS_P1;PMS_P2;Temp;Humidity;BMP_temperature;BMP_pressure;BME280_temperature;BME280_humidity;BME280_pressure;Samples;Min_cycle;Max_cycle;Signal;HPM_P1;HPM_P2
2022/06/24 00:00:40;;;;;;;25.02;8.00;;;21.60;99.90;;;;;;5088869;28;20150;-77
2022/06/24 00:03:14;;;;;;;27.42;8.90;;;21.60;99.90;;;;;;5088168;28;20105;-77
2022/06/24 00:05:40;;;;;;;21.52;7.13;;;21.60;99.90;;;;;;5091489;28;20027;-77
2022/06/24 00:08:06;;;;;;;24.73;8.40;;;21.30;99.90;;;;;;5087173;28;20027;-77
2022/06/24 00:10:35;;;;;;;23.13;8.45;;;21.50;99.90;;;;;;5087929;28;20027;-77
2022/06/24 00:13:02;;;;;;;25.92;7.35;;;21.60;99.90;;;;;;5090746;28;20485;-77
2022/06/24 00:15:30;;;;;;;17.40;6.35;;;21.50;99.90;;;;;;5089391;28;20032;-77
2022/06/24 00:17:56;;;;;;;25.67;8.30;;;21.40;99.90;;;;;;5091386;28;20089;-77
2022/06/24 00:20:23;;;;;;;26.52;7.70;;;21.40;99.90;;;;;;5088543;28;20027;-77
2022/06/24 00:22:52;;;;;;;25.48;7.65;;;21.40;99.90;;;;;;5089528;28;20028;-77
2022/06/24 00:25:22;;;;;;;23.75;7.53;;;21.50;99.90;;;;;;5091144;28;20028;-77
2022/06/24 00:28:08;;;;;;;16.52;6.95;;;21.60;99.90;;;;;;5090092;28;20460;-77
2022/06/24 00:30:38;;;;;;;16.65;6.80;;;21.70;99.90;;;;;;5089145;28;20062;-77
2022/06/24 00:33:16;;;;;;;26.63;7.30;;;21.70;99.90;;;;;;5090643;28;20039;-77
2022/06/24 00:35:45;;;;;;;18.23;7.28;;;21.70;99.90;;;;;;5087792;28;20056;-77
2022/06/24 00:38:24;;;;;;;19.58;7.53;;;21.70;99.90;;;;;;5091908;28;20127;-77
2022/06/24 00:41:02;;;;;;;26.58;7.80;;;21.50;99.90;;;;;;5090650;28;20043;-77
2022/06/24 00:43:34;;;;;;;20.13;7.20;;;21.70;99.90;;;;;;5089446;28;20143;-77
2022/06/24 00:46:11;;;;;;;15.98;8.43;;;21.60;99.90;;;;;;5091081;28;20473;-77
2022/06/24 00:48:40;;;;;;;20.15;7.85;;;21.50;99.90;;;;;;5080380;28;20513;-77
2022/06/24 00:51:07;;;;;;;18.00;7.20;;;21.50;99.90;;;;;;5090869;28;20373;-77
2022/06/24 00:53:44;;;;;;;17.67;7.85;;;21.50;99.90;;;;;;5089301;28;20020;-77
2022/06/24 00:56:12;;;;;;;23.48;8.45;;;21.40;99.90;;;;;;5089371;28;20505;-77
2022/06/24 00:58:39;;;;;;;16.30;7.53;;;21.40;99.90;;;;;;5090442;28;20020;-77
2022/06/24 01:01:04;;;;;;;16.95;6.50;;;21.40;99.90;;;;;;5097495;28;20048;-77
2022/06/24 01:03:42;;;;;;;16.98;6.65;;;21.30;99.90;;;;;;5102452;28;20081;-77
2022/06/24 01:06:09;;;;;;;21.80;7.25;;;21.20;99.90;;;;;;5089218;28;20032;-77
2022/06/24 01:08:35;;;;;;;18.45;7.32;;;21.20;99.90;;;;;;5090409;28;20036;-77
2022/06/24 01:11:01;;;;;;;14.30;7.35;;;21.20;99.90;;;;;;5088189;28;20097;-77
2022/06/24 01:13:28;;;;;;;15.82;6.72;;;21.10;99.90;;;;;;5087130;28;20032;-77
2022/06/24 01:15:54;;;;;;;26.13;7.40;;;21.00;99.90;;;;;;5089289;28;20050;-77
2022/06/24 01:18:21;;;;;;;17.20;7.97;;;20.90;99.90;;;;;;5089439;28;20123;-77
2022/06/24 01:20:47;;;;;;;17.98;7.57;;;20.90;99.90;;;;;;5087955;28;20082;-77
2022/06/24 01:23:21;;;;;;;18.67;7.32;;;20.80;99.90;;;;;;5088700;28;20044;-77
2022/06/24 01:25:47;;;;;;;22.63;6.72;;;20.80;99.90;;;;;;5088346;28;20107;-77
2022/06/24 01:28:12;;;;;;;19.48;7.20;;;20.80;99.90;;;;;;5083240;28;20120;-77
2022/06/24 01:30:38;;;;;;;19.58;7.22;;;20.60;99.90;;;;;;5089666;28;20031;-77
2022/06/24 01:33:04;;;;;;;19.27;7.93;;;20.40;99.90;;;;;;5092137;28;20096;-77
2022/06/24 01:35:30;;;;;;;26.08;7.90;;;20.40;99.90;;;;;;5091827;28;20709;-77
2022/06/24 01:37:55;;;;;;;18.50;7.18;;;20.30;99.90;;;;;;5092202;28;20062;-77
2022/06/24 01:40:21;;;;;;;32.65;7.93;;;20.40;99.90;;;;;;5092824;28;20024;-77
2022/06/24 01:42:47;;;;;;;21.00;7.97;;;20.40;99.90;;;;;;5092642;28;20112;-77
2022/06/24 01:45:12;;;;;;;23.75;8.70;;;20.40;99.90;;;;;;5095095;28;20111;-77
2022/06/24 01:47:38;;;;;;;22.40;7.43;;;20.40;99.90;;;;;;5092748;28;20024;-77
2022/06/24 01:50:04;;;;;;;17.80;7.43;;;20.30;99.90;;;;;;5095681;28;20122;-77
2022/06/24 01:52:30;;;;;;;23.60;7.82;;;20.40;99.90;;;;;;5092707;28;20062;-77
2022/06/24 01:54:56;;;;;;;20.90;8.00;;;20.20;99.90;;;;;;5097881;28;20028;-77
2022/06/24 01:57:21;;;;;;;24.17;8.07;;;20.40;99.90;;;;;;5085946;28;20164;-77
2022/06/24 01:59:47;;;;;;;19.02;6.95;;;20.20;99.90;;;;;;5090004;28;20111;-77
2022/06/24 02:02:13;;;;;;;22.02;8.13;;;20.20;99.90;;;;;;5090315;28;20059;-77
2022/06/24 02:04:38;;;;;;;35.08;6.90;;;20.20;99.90;;;;;;5091848;28;20036;-77
2022/06/24 02:07:04;;;;;;;15.88;6.03;;;20.20;99.90;;;;;;5093158;28;20154;-77
2022/06/24 02:09:30;;;;;;;19.58;6.82;;;20.40;99.90;;;;;;5094063;28;20145;-77
2022/06/24 02:14:40;;;;;;;20.63;6.97;;;20.30;99.90;;;;;;5094023;28;20051;-77
2022/06/24 02:17:05;;;;;;;19.70;8.38;;;20.30;99.90;;;;;;5092310;28;20036;-77
2022/06/24 02:19:32;;;;;;;17.27;6.85;;;20.30;99.90;;;;;;5093843;28;20032;-77
2022/06/24 02:21:58;;;;;;;13.68;5.75;;;20.30;99.90;;;;;;5091685;28;20028;-77
2022/06/24 02:24:24;;;;;;;15.95;7.10;;;20.30;99.90;;;;;;5093117;28;20047;-77
2022/06/24 02:26:49;;;;;;;17.65;6.90;;;20.40;99.90;;;;;;5090505;28;20112;-77
2022/06/24 02:29:15;;;;;;;23.55;7.47;;;20.40;99.90;;;;;;5092903;28;20028;-77
2022/06/24 02:31:42;;;;;;;16.45;6.32;;;20.40;99.90;;;;;;5091336;28;20465;-77
2022/06/24 02:34:07;;;;;;;18.25;6.78;;;20.50;99.90;;;;;;5093608;28;20027;-77
2022/06/24 02:36:33;;;;;;;23.00;6.60;;;20.50;99.90;;;;;;5091156;28;20028;-77
2022/06/24 02:38:59;;;;;;;18.55;5.38;;;20.40;99.90;;;;;;5093216;28;20503;-76
2022/06/24 02:41:24;;;;;;;13.38;6.35;;;20.20;99.90;;;;;;5091371;28;20032;-77
2022/06/24 02:43:50;;;;;;;15.65;6.05;;;20.40;99.90;;;;;;5092566;28;20051;-77
2022/06/24 02:46:19;;;;;;;16.13;6.10;;;20.20;99.90;;;;;;5092921;28;20036;-77
2022/06/24 02:48:46;;;;;;;18.70;6.35;;;20.10;99.90;;;;;;5090983;28;20027;-77
2022/06/24 02:51:13;;;;;;;19.10;5.65;;;20.10;99.90;;;;;;5091243;28;20020;-77
2022/06/24 02:53:40;;;;;;;20.48;5.78;;;20.20;99.90;;;;;;5090292;28;20034;-77
2022/06/24 02:56:08;;;;;;;20.38;7.07;;;20.30;99.90;;;;;;5091436;28;20070;-77
2022/06/24 02:58:34;;;;;;;16.35;5.60;;;20.30;99.90;;;;;;5090591;28;20028;-77
2022/06/24 03:01:01;;;;;;;23.40;7.30;;;20.30;99.90;;;;;;5087647;28;20036;-79
2022/06/24 03:03:28;;;;;;;22.88;7.18;;;20.20;99.90;;;;;;5079173;28;20036;-79
2022/06/24 03:05:54;;;;;;;18.55;6.22;;;20.00;99.90;;;;;;5087929;28;20107;-79
2022/06/24 03:08:21;;;;;;;17.88;6.50;;;20.00;99.90;;;;;;5083529;28;20032;-79
2022/06/24 03:10:48;;;;;;;30.27;7.30;;;19.80;99.90;;;;;;5087919;28;20032;-79
2022/06/24 03:13:14;;;;;;;13.70;6.68;;;19.70;99.90;;;;;;5086220;28;20036;-79
2022/06/24 03:15:41;;;;;;;18.40;6.70;;;19.50;99.90;;;;;;5089928;28;20466;-79
2022/06/24 03:18:07;;;;;;;20.58;6.85;;;19.50;99.90;;;;;;5094096;28;20030;-80
2022/06/24 03:20:32;;;;;;;19.73;6.70;;;19.60;99.90;;;;;;5111524;28;20228;-80
2022/06/24 03:22:58;;;;;;;19.67;7.72;;;19.70;99.90;;;;;;5091312;28;20046;-78
2022/06/24 03:25:24;;;;;;;20.30;7.47;;;19.80;99.90;;;;;;5086976;28;20081;-78
2022/06/24 03:27:50;;;;;;;31.65;7.53;;;19.80;99.90;;;;;;5106331;28;20035;-78
2022/06/24 03:30:16;;;;;;;15.85;6.78;;;19.70;99.90;;;;;;5108934;28;20040;-79
2022/06/24 03:32:42;;;;;;;19.05;6.93;;;19.70;99.90;;;;;;5099028;28;20043;-78
2022/06/24 03:35:08;;;;;;;19.98;6.20;;;19.70;99.90;;;;;;5089934;28;20032;-79
2022/06/24 03:37:34;;;;;;;19.02;6.85;;;19.70;99.90;;;;;;5089576;28;20931;-79
2022/06/24 03:40:01;;;;;;;23.60;6.75;;;19.60;99.90;;;;;;5085633;28;20044;-78
2022/06/24 03:42:27;;;;;;;17.50;6.85;;;19.60;99.90;;;;;;5088202;28;20482;-79
2022/06/24 03:44:53;;;;;;;19.85;6.53;;;19.60;99.90;;;;;;5088038;28;20393;-79
2022/06/24 03:47:19;;;;;;;19.67;6.72;;;19.50;99.90;;;;;;5086658;28;20032;-79
2022/06/24 03:49:45;;;;;;;16.80;7.30;;;19.60;99.90;;;;;;5086117;28;20112;-79
2022/06/24 03:52:11;;;;;;;14.95;5.88;;;19.70;99.90;;;;;;5087041;28;20036;-79
2022/06/24 03:54:38;;;;;;;18.52;6.38;;;19.80;99.90;;;;;;5083997;28;20032;-78
2022/06/24 03:57:04;;;;;;;19.90;7.15;;;19.70;99.90;;;;;;5086502;28;20078;-78
2022/06/24 03:59:30;;;;;;;17.33;6.10;;;19.70;99.90;;;;;;5082114;28;20111;-78
2022/06/24 04:01:57;;;;;;;16.85;6.18;;;19.80;99.90;;;;;;5083996;28;20173;-79
2022/06/24 04:04:22;;;;;;;20.10;5.80;;;19.90;99.90;;;;;;5081866;28;20161;-80
2022/06/24 04:06:48;;;;;;;13.43;6.15;;;19.80;99.90;;;;;;5084706;28;20153;-79
2022/06/24 04:09:14;;;;;;;15.45;7.25;;;19.70;99.90;;;;;;5083262;28;20024;-79
2022/06/24 04:11:40;;;;;;;20.40;6.95;;;19.70;99.90;;;;;;5082640;28;20038;-79
2022/06/24 04:14:05;;;;;;;17.80;5.57;;;19.80;99.90;;;;;;5083708;28;20032;-79
2022/06/24 04:16:31;;;;;;;19.73;6.28;;;19.80;99.90;;;;;;5079406;28;20024;-79
2022/06/24 04:18:57;;;;;;;21.70;6.10;;;19.80;99.90;;;;;;5082539;28;20477;-78
2022/06/24 04:21:22;;;;;;;15.50;7.80;;;19.80;99.90;;;;;;5080093;28;20189;-79
2022/06/24 04:23:49;;;;;;;11.55;5.80;;;19.80;99.90;;;;;;5080865;28;20032;-78
2022/06/24 04:26:15;;;;;;;20.73;5.68;;;19.80;99.90;;;;;;5084359;28;20043;-78
2022/06/24 04:28:41;;;;;;;16.08;5.90;;;19.70;99.90;;;;;;5080279;28;20061;-80
2022/06/24 04:31:07;;;;;;;14.10;6.20;;;19.80;99.90;;;;;;5082535;28;20066;-81
2022/06/24 04:33:33;;;;;;;20.77;6.15;;;19.80;99.90;;;;;;5082536;28;20116;-79
2022/06/24 04:35:58;;;;;;;13.95;6.18;;;19.80;99.90;;;;;;5083843;28;20032;-79
2022/06/24 04:38:24;;;;;;;17.33;5.88;;;19.80;99.90;;;;;;5082365;28;20031;-80
2022/06/24 04:40:50;;;;;;;21.45;6.47;;;19.90;99.90;;;;;;5084745;28;20039;-79
2022/06/24 04:43:15;;;;;;;22.60;6.95;;;19.80;99.90;;;;;;5081238;28;20508;-79
2022/06/24 04:45:44;;;;;;;23.42;7.15;;;19.70;99.90;;;;;;5083642;28;21153;-80
2022/06/24 04:48:10;;;;;;;21.65;6.45;;;19.90;99.90;;;;;;5082463;28;20019;-79
2022/06/24 04:50:35;;;;;;;17.77;6.20;;;20.00;99.90;;;;;;5084374;28;20496;-79
2022/06/24 04:53:01;;;;;;;18.33;7.28;;;20.00;99.90;;;;;;5082451;28;20043;-80
2022/06/24 04:55:27;;;;;;;15.63;6.60;;;20.10;99.90;;;;;;5081868;28;20061;-79
2022/06/24 04:57:53;;;;;;;16.73;6.90;;;20.20;99.90;;;;;;5078725;28;20535;-79
2022/06/24 05:00:18;;;;;;;14.63;6.00;;;20.30;99.90;;;;;;5084009;28;20027;-80
2022/06/24 05:02:44;;;;;;;17.25;7.07;;;20.30;99.90;;;;;;5079226;28;20083;-78
2022/06/24 05:05:11;;;;;;;20.67;6.30;;;20.30;99.90;;;;;;5084716;28;20425;-81
2022/06/24 05:07:38;;;;;;;21.73;6.25;;;20.40;99.90;;;;;;5081501;28;20848;-77
2022/06/24 05:10:05;;;;;;;17.00;6.32;;;20.20;99.90;;;;;;5085915;28;20103;-77
2022/06/24 05:12:31;;;;;;;18.40;6.57;;;20.20;99.90;;;;;;5083560;28;20043;-78
2022/06/24 05:14:57;;;;;;;19.75;6.68;;;20.20;99.90;;;;;;5081907;28;20032;-80
2022/06/24 05:17:24;;;;;;;14.30;6.15;;;20.10;99.90;;;;;;5082052;28;20397;-78
2022/06/24 05:19:51;;;;;;;16.58;6.55;;;20.30;99.90;;;;;;5084723;28;20397;-78
2022/06/24 05:22:16;;;;;;;14.38;6.20;;;20.40;99.90;;;;;;5083858;28;20430;-77
2022/06/24 05:24:42;;;;;;;16.98;6.05;;;20.20;99.90;;;;;;5080807;28;20178;-80
2022/06/24 05:27:08;;;;;;;22.02;7.45;;;20.00;99.90;;;;;;5085716;28;20088;-77
2022/06/24 05:29:34;;;;;;;19.80;5.93;;;19.90;99.90;;;;;;5081450;28;20035;-78
2022/06/24 05:31:59;;;;;;;21.27;7.07;;;20.00;99.90;;;;;;5085609;28;20409;-80
2022/06/24 05:34:25;;;;;;;20.50;6.38;;;20.20;99.90;;;;;;5085430;28;20032;-78
2022/06/24 05:36:51;;;;;;;17.50;7.25;;;20.30;99.90;;;;;;5083091;28;20448;-78
2022/06/24 05:39:16;;;;;;;15.10;5.78;;;20.50;99.90;;;;;;5078060;28;20067;-77
2022/06/24 05:41:43;;;;;;;14.35;6.85;;;20.60;99.90;;;;;;5083278;28;20072;-77
2022/06/24 05:44:09;;;;;;;21.23;5.68;;;20.30;99.90;;;;;;5083055;28;20032;-78
2022/06/24 05:46:35;;;;;;;17.42;6.53;;;20.10;99.90;;;;;;5080699;28;20028;-75
2022/06/24 05:49:01;;;;;;;18.10;6.22;;;20.20;99.90;;;;;;5082160;28;20039;-75
2022/06/24 05:51:26;;;;;;;17.15;6.63;;;20.40;99.90;;;;;;5081814;28;20029;-75
2022/06/24 05:56:36;;;;;;;19.40;6.43;;;20.80;99.90;;;;;;5081401;28;20137;-75
2022/06/24 05:59:04;;;;;;;19.20;7.47;;;20.90;99.90;;;;;;5099241;28;20089;-78
2022/06/24 06:01:30;;;;;;;22.45;6.03;;;20.90;99.90;;;;;;5094214;28;20554;-75
2022/06/24 06:03:56;;;;;;;19.10;6.07;;;21.00;99.90;;;;;;5082660;28;20043;-75
2022/06/24 06:06:23;;;;;;;19.17;6.30;;;21.10;99.90;;;;;;5083613;28;20030;-76
2022/06/24 06:08:49;;;;;;;18.98;6.53;;;21.10;99.90;;;;;;5076605;28;20056;-75
2022/06/24 06:11:22;;;;;;;20.90;6.20;;;21.10;99.90;;;;;;5082744;28;20673;-76
2022/06/24 06:13:50;;;;;;;24.42;8.02;;;21.20;99.90;;;;;;5082827;28;20032;-75
2022/06/24 06:16:16;;;;;;;25.17;6.07;;;21.30;99.90;;;;;;5081181;28;21182;-75
2022/06/24 06:18:42;;;;;;;16.02;6.35;;;21.40;99.90;;;;;;5085314;28;20444;-76
2022/06/24 06:21:10;;;;;;;19.80;6.30;;;21.50;99.90;;;;;;5085290;28;20034;-76
2022/06/24 06:23:40;;;;;;;22.42;6.60;;;21.60;99.90;;;;;;5085875;28;20048;-75
2022/06/24 06:26:07;;;;;;;19.58;6.53;;;21.70;99.90;;;;;;5083982;28;20024;-76
2022/06/24 06:28:33;;;;;;;17.85;6.70;;;21.70;99.90;;;;;;5082694;28;20032;-75
2022/06/24 06:30:59;;;;;;;17.58;6.90;;;21.80;99.90;;;;;;5084118;28;20028;-75
2022/06/24 06:33:25;;;;;;;19.35;6.30;;;21.80;99.90;;;;;;5084179;28;20031;-75
2022/06/24 06:35:51;;;;;;;18.33;6.55;;;21.80;99.90;;;;;;5084872;28;20044;-75
2022/06/24 06:38:17;;;;;;;17.08;7.25;;;21.80;99.90;;;;;;5083733;28;20077;-77
2022/06/24 06:40:43;;;;;;;21.98;7.25;;;21.80;99.90;;;;;;5086927;28;20033;-76
2022/06/24 06:43:09;;;;;;;20.38;6.00;;;21.90;99.90;;;;;;5085338;28;20032;-76
2022/06/24 06:45:37;;;;;;;20.05;7.50;;;21.80;99.90;;;;;;5084853;28;20103;-76
2022/06/24 06:48:03;;;;;;;16.33;6.32;;;21.90;99.90;;;;;;5084212;28;20080;-76
2022/06/24 06:50:29;;;;;;;21.00;6.88;;;21.90;99.90;;;;;;5086893;28;20102;-75
2022/06/24 06:52:55;;;;;;;21.98;6.78;;;22.00;99.90;;;;;;5086001;28;20072;-76
2022/06/24 06:55:21;;;;;;;17.55;6.57;;;22.10;99.90;;;;;;5086535;28;20082;-75
2022/06/24 06:57:47;;;;;;;13.30;6.85;;;22.10;99.90;;;;;;5085546;28;20032;-76
2022/06/24 07:00:14;;;;;;;17.35;6.22;;;22.20;99.90;;;;;;5086040;28;20024;-77
2022/06/24 07:02:40;;;;;;;16.73;6.95;;;22.40;99.90;;;;;;5085687;28;20401;-76
2022/06/24 07:05:07;;;;;;;22.42;7.30;;;22.50;99.90;;;;;;5086320;28;20044;-77
2022/06/24 07:07:33;;;;;;;16.42;5.50;;;22.80;99.90;;;;;;5085546;28;20039;-77
2022/06/24 07:09:59;;;;;;;18.15;6.18;;;23.00;99.90;;;;;;5086484;28;20052;-76
2022/06/24 07:12:26;;;;;;;16.60;6.20;;;23.30;99.90;;;;;;5085107;28;20035;-77
2022/06/24 07:14:51;;;;;;;19.20;5.13;;;23.50;99.90;;;;;;5079875;28;20028;-77
2022/06/24 07:17:17;;;;;;;12.40;5.03;;;23.80;99.90;;;;;;5082357;28;20040;-76
2022/06/24 07:19:44;;;;;;;12.88;5.15;;;24.10;99.90;;;;;;5083602;28;20027;-77
2022/06/24 07:22:10;;;;;;;15.60;4.68;;;24.30;99.90;;;;;;5085846;28;20032;-76
2022/06/24 07:24:36;;;;;;;20.10;5.22;;;24.50;99.90;;;;;;5085140;28;20077;-76
2022/06/24 07:27:03;;;;;;;16.02;5.60;;;24.80;99.90;;;;;;5085661;28;20041;-76
2022/06/24 07:29:33;;;;;;;17.35;5.50;;;25.00;99.90;;;;;;5082753;28;20032;-77
2022/06/24 07:31:59;;;;;;;19.17;5.47;;;25.30;99.90;;;;;;5085623;28;20036;-77
2022/06/24 07:34:26;;;;;;;19.90;5.35;;;25.90;99.90;;;;;;5067950;28;20541;-77
2022/06/24 07:36:52;;;;;;;16.85;5.30;;;26.50;99.20;;;;;;5086463;28;20059;-77
2022/06/24 07:39:18;;;;;;;24.38;6.25;;;27.00;97.80;;;;;;5082858;28;20024;-77
2022/06/24 07:41:44;;;;;;;17.60;4.68;;;27.40;96.70;;;;;;5085646;28;20515;-76
2022/06/24 07:44:09;;;;;;;14.50;4.65;;;28.30;96.20;;;;;;5085253;28;20043;-76
2022/06/24 07:46:35;;;;;;;19.85;4.88;;;28.60;94.70;;;;;;5083201;28;20468;-76
2022/06/24 07:49:01;;;;;;;18.25;5.05;;;28.30;95.10;;;;;;5083873;28;20058;-77
2022/06/24 07:51:26;;;;;;;18.48;5.78;;;27.90;95.00;;;;;;5084364;28;20466;-76
2022/06/24 07:53:52;;;;;;;19.60;4.53;;;27.70;95.40;;;;;;5084844;28;20055;-76
2022/06/24 07:59:03;;;;;;;20.95;5.13;;;27.30;97.50;;;;;;5080368;28;20051;-76
2022/06/24 08:01:29;;;;;;;20.67;5.03;;;27.50;97.10;;;;;;5083739;28;20059;-76
2022/06/24 08:03:55;;;;;;;17.25;5.07;;;27.30;96.50;;;;;;5085504;28;20047;-77
2022/06/24 08:06:20;;;;;;;15.27;4.20;;;27.00;96.80;;;;;;5068836;28;20040;-77
2022/06/24 08:08:46;;;;;;;14.05;4.57;;;27.10;95.30;;;;;;5083701;28;20035;-76
2022/06/24 08:11:12;;;;;;;11.65;3.67;;;26.80;95.50;;;;;;5095905;28;20118;-77
2022/06/24 08:13:38;;;;;;;21.67;4.55;;;26.90;95.90;;;;;;5106840;28;20031;-77
2022/06/24 08:16:04;;;;;;;21.83;5.65;;;26.90;95.30;;;;;;5090857;28;20046;-76
2022/06/24 08:18:29;;;;;;;13.80;4.30;;;26.40;95.90;;;;;;5083328;28;20380;-76
2022/06/24 08:20:55;;;;;;;17.60;3.75;;;25.70;95.50;;;;;;5077048;28;20036;-76
2022/06/24 08:23:21;;;;;;;13.05;4.18;;;25.30;96.60;;;;;;5082247;28;20032;-76
2022/06/24 08:25:46;;;;;;;14.93;3.83;;;25.10;95.70;;;;;;5083604;28;20122;-76
2022/06/24 08:28:12;;;;;;;11.20;3.78;;;25.20;95.50;;;;;;5099682;28;20036;-76
2022/06/24 08:30:38;;;;;;;13.73;4.40;;;25.70;95.50;;;;;;5101603;28;20420;-76
2022/06/24 08:33:04;;;;;;;14.50;5.20;;;25.70;95.50;;;;;;5084929;28;20059;-77
2022/06/24 08:35:30;;;;;;;12.30;3.97;;;25.50;96.60;;;;;;5086274;28;20565;-76
2022/06/24 08:37:57;;;;;;;16.67;4.63;;;25.30;96.50;;;;;;5083424;28;20550;-76
2022/06/24 08:40:24;;;;;;;15.25;3.30;;;25.20;98.60;;;;;;5079939;28;20039;-76
2022/06/24 08:42:55;;;;;;;16.83;4.47;;;24.80;99.30;;;;;;5083744;28;20031;-76
2022/06/24 08:45:22;;;;;;;14.63;3.90;;;24.80;98.10;;;;;;5085267;28;20044;-76
2022/06/24 08:47:50;;;;;;;11.98;3.38;;;25.20;99.00;;;;;;5082756;28;20504;-76
2022/06/24 08:50:17;;;;;;;15.13;3.78;;;25.10;96.70;;;;;;5082154;28;20054;-76
2022/06/24 08:52:51;;;;;;;12.35;4.38;;;25.10;97.30;;;;;;5075882;28;20047;-77
2022/06/24 08:55:19;;;;;;;16.77;5.13;;;25.00;98.00;;;;;;5083576;28;20101;-76
2022/06/24 08:57:47;;;;;;;17.75;4.60;;;25.00;98.70;;;;;;5081754;28;20070;-76
2022/06/24 09:00:14;;;;;;;13.15;3.90;;;24.70;98.30;;;;;;5083307;28;20016;-76
2022/06/24 09:02:40;;;;;;;17.10;3.28;;;25.00;97.10;;;;;;5083140;28;20646;-76
2022/06/24 09:05:10;;;;;;;11.95;3.67;;;25.20;98.50;;;;;;5082588;28;20064;-76
2022/06/24 09:07:36;;;;;;;16.23;4.72;;;25.40;98.70;;;;;;5083220;28;20031;-76
2022/06/24 09:10:12;;;;;;;14.00;3.72;;;25.70;96.80;;;;;;5083365;28;20028;-76
2022/06/24 09:12:46;;;;;;;11.45;3.78;;;25.60;98.00;;;;;;5082700;28;20036;-77
2022/06/24 09:15:13;;;;;;;15.18;4.25;;;25.50;95.90;;;;;;5085186;28;20107;-76
2022/06/24 09:17:40;;;;;;;14.75;4.03;;;25.60;95.40;;;;;;5083683;28;20561;-76
2022/06/24 09:20:21;;;;;;;21.77;4.95;;;25.60;95.10;;;;;;5082499;28;20085;-76
2022/06/24 09:22:47;;;;;;;15.80;4.10;;;25.60;95.50;;;;;;5083380;28;20030;-77
2022/06/24 09:25:13;;;;;;;14.70;3.63;;;25.70;94.40;;;;;;5084171;28;20494;-76
2022/06/24 09:27:45;;;;;;;16.33;4.10;;;25.80;94.70;;;;;;5081122;28;20039;-76
2022/06/24 09:30:15;;;;;;;14.73;3.58;;;26.00;94.50;;;;;;5082848;28;20405;-77
2022/06/24 09:32:54;;;;;;;15.02;3.45;;;26.60;94.20;;;;;;5083227;28;20035;-76
2022/06/24 09:35:22;;;;;;;12.85;3.65;;;26.80;93.80;;;;;;5056386;28;20477;-77
2022/06/24 09:37:50;;;;;;;10.80;3.33;;;27.00;94.10;;;;;;5082236;28;20097;-76
2022/06/24 09:40:34;;;;;;;17.48;3.70;;;27.50;93.60;;;;;;5083233;28;20085;-76
2022/06/24 09:43:05;;;;;;;16.08;3.55;;;28.10;93.30;;;;;;5082558;28;20434;-77
2022/06/24 09:45:51;;;;;;;12.43;3.53;;;28.30;92.70;;;;;;5082133;28;20024;-76
2022/06/24 09:48:29;;;;;;;11.68;3.17;;;28.30;92.40;;;;;;5082431;28;20398;-76
2022/06/24 09:51:02;;;;;;;15.95;3.60;;;27.90;93.10;;;;;;5077859;28;20086;-77
2022/06/24 09:53:32;;;;;;;19.88;4.70;;;27.50;92.80;;;;;;5080970;28;20119;-76
2022/06/24 09:55:59;;;;;;;17.65;3.90;;;27.90;93.00;;;;;;5087871;28;20032;-77
2022/06/24 09:58:25;;;;;;;12.38;3.47;;;28.50;93.20;;;;;;5085077;28;20081;-76
2022/06/24 10:00:52;;;;;;;13.38;3.63;;;28.80;92.70;;;;;;5085834;28;20032;-76
2022/06/24 10:03:18;;;;;;;14.35;4.18;;;28.20;92.20;;;;;;5086139;28;20170;-77
2022/06/24 10:05:49;;;;;;;14.45;3.83;;;28.00;92.30;;;;;;5087188;28;20032;-77
2022/06/24 10:08:23;;;;;;;16.35;4.10;;;27.50;92.70;;;;;;5086827;28;20474;-76
2022/06/24 10:10:54;;;;;;;15.20;3.53;;;27.30;92.10;;;;;;5087158;28;20099;-75
2022/06/24 10:13:32;;;;;;;10.55;3.50;;;27.10;92.40;;;;;;5085867;28;20023;-76
2022/06/24 10:16:01;;;;;;;13.50;4.25;;;26.90;92.00;;;;;;5086670;28;20046;-77
2022/06/24 10:18:40;;;;;;;15.50;3.35;;;26.90;92.20;;;;;;5085929;28;20125;-76
2022/06/24 10:21:08;;;;;;;17.73;4.13;;;26.90;92.20;;;;;;5085067;28;20031;-76
2022/06/24 10:23:47;;;;;;;15.10;3.50;;;26.80;92.40;;;;;;5082593;28;20044;-76
2022/06/24 10:26:25;;;;;;;16.35;4.40;;;26.90;92.20;;;;;;5086258;28;20532;-77
2022/06/24 10:29:00;;;;;;;16.48;3.95;;;27.00;93.00;;;;;;5086330;28;20381;-76
2022/06/24 10:31:45;;;;;;;16.63;3.33;;;26.90;92.00;;;;;;5082837;28;20028;-77
2022/06/24 10:34:22;;;;;;;9.00;2.88;;;27.00;92.10;;;;;;5081646;28;20559;-76
2022/06/24 10:36:50;;;;;;;12.50;2.83;;;27.00;91.80;;;;;;5084756;28;20111;-76
2022/06/24 10:39:21;;;;;;;11.48;3.65;;;27.00;91.70;;;;;;5068649;28;20096;-77
2022/06/24 10:42:02;;;;;;;13.27;3.28;;;27.30;92.30;;;;;;5088158;28;20035;-76
2022/06/24 10:44:32;;;;;;;9.52;3.15;;;27.90;92.00;;;;;;5085889;28;20037;-76
2022/06/24 10:47:04;;;;;;;13.57;3.63;;;28.70;91.50;;;;;;5081008;28;20028;-76
2022/06/24 10:49:52;;;;;;;13.27;3.38;;;29.20;90.80;;;;;;5088689;28;20027;-76
2022/06/24 10:52:45;;;;;;;10.57;3.30;;;29.20;89.80;;;;;;5080340;28;20029;-77
2022/06/24 10:57:46;;;;;;;13.10;3.85;;;29.40;88.80;;;;;;5109604;28;20020;-76
2022/06/24 11:00:20;;;;;;;14.20;3.03;;;29.60;89.70;;;;;;5098055;28;20115;-76
2022/06/24 11:02:52;;;;;;;15.00;3.45;;;30.00;88.30;;;;;;5089710;28;20481;-76
2022/06/24 11:05:24;;;;;;;13.57;3.40;;;29.70;87.10;;;;;;5089968;28;20071;-77
2022/06/24 11:07:50;;;;;;;11.65;2.95;;;29.10;87.70;;;;;;5087511;28;20028;-76
2022/06/24 11:10:21;;;;;;;12.48;3.08;;;29.30;86.50;;;;;;5089509;28;20405;-76
2022/06/24 11:12:54;;;;;;;9.48;3.00;;;29.20;86.50;;;;;;5087431;28;20028;-76
2022/06/24 11:15:49;;;;;;;9.93;3.08;;;28.80;87.50;;;;;;5089900;28;20031;-76
2022/06/24 11:18:17;;;;;;;14.35;2.90;;;28.90;87.50;;;;;;5088729;28;20046;-76
2022/06/24 11:20:54;;;;;;;12.63;2.65;;;28.70;88.20;;;;;;5087077;28;20088;-77
2022/06/24 11:23:22;;;;;;;17.92;3.47;;;28.50;87.70;;;;;;5085389;28;20036;-76
2022/06/24 11:26:09;;;;;;;10.07;3.15;;;28.60;88.00;;;;;;5086399;28;20626;-76
2022/06/24 11:28:36;;;;;;;11.35;3.10;;;29.10;88.40;;;;;;5084505;28;20628;-76
2022/06/24 11:31:22;;;;;;;13.10;3.13;;;29.50;87.70;;;;;;5087905;28;20046;-76
2022/06/24 11:34:08;;;;;;;11.95;3.08;;;29.30;85.20;;;;;;5088212;28;20032;-77
2022/06/24 11:36:36;;;;;;;8.93;2.35;;;29.40;87.00;;;;;;5085511;28;20476;-76
2022/06/24 11:39:07;;;;;;;6.13;2.80;;;29.80;85.00;;;;;;5088427;28;20035;-76
2022/06/24 11:41:34;;;;;;;13.60;3.03;;;30.10;85.10;;;;;;5088975;28;20071;-76
2022/06/24 11:44:00;;;;;;;11.45;2.92;;;30.40;83.40;;;;;;5084906;28;20109;-76
2022/06/24 11:46:26;;;;;;;14.85;2.83;;;30.60;83.60;;;;;;5086923;28;20481;-77
2022/06/24 11:49:12;;;;;;;13.63;3.72;;;30.80;82.30;;;;;;5088256;28;20032;-76
2022/06/24 11:51:39;;;;;;;13.43;2.75;;;30.70;82.50;;;;;;5084563;28;20025;-77
2022/06/24 11:54:07;;;;;;;9.57;2.47;;;30.40;82.90;;;;;;5083823;28;20538;-76
2022/06/24 11:56:34;;;;;;;11.98;2.83;;;30.50;82.10;;;;;;5085648;28;20032;-76
2022/06/24 11:59:02;;;;;;;12.18;2.85;;;30.60;83.10;;;;;;5087815;28;20055;-76
2022/06/24 12:01:29;;;;;;;10.15;2.92;;;30.50;80.60;;;;;;5088572;28;20055;-76
2022/06/24 12:03:58;;;;;;;11.73;2.30;;;30.60;81.90;;;;;;5088077;28;20032;-76
2022/06/24 12:06:24;;;;;;;12.63;2.80;;;30.60;79.30;;;;;;5088171;28;20497;-77
2022/06/24 12:08:51;;;;;;;10.75;3.05;;;30.50;80.40;;;;;;5087623;28;20462;-77
2022/06/24 12:11:21;;;;;;;9.30;2.40;;;30.60;80.60;;;;;;5088266;28;20031;-76
2022/06/24 12:14:07;;;;;;;10.23;2.58;;;30.50;83.60;;;;;;5088341;28;20024;-76
2022/06/24 12:16:55;;;;;;;7.35;2.40;;;30.80;81.80;;;;;;5087241;28;20537;-76
2022/06/24 12:19:21;;;;;;;15.40;2.22;;;30.40;80.20;;;;;;5086030;28;20520;-76
2022/06/24 12:21:46;;;;;;;12.98;3.38;;;30.40;80.80;;;;;;5087081;28;20051;-76
2022/06/24 12:24:26;;;;;;;12.50;2.15;;;30.50;80.60;;;;;;5084309;28;20044;-77
2022/06/24 12:26:54;;;;;;;13.82;2.92;;;30.60;81.50;;;;;;5083188;28;20036;-77
2022/06/24 12:29:32;;;;;;;16.52;3.28;;;30.50;79.60;;;;;;5082988;28;20032;-76
2022/06/24 12:31:58;;;;;;;10.07;3.13;;;30.40;78.80;;;;;;5087461;28;20055;-76
2022/06/24 12:34:26;;;;;;;9.40;2.58;;;30.70;81.00;;;;;;5087075;28;20040;-77
2022/06/24 12:37:00;;;;;;;7.50;2.67;;;30.50;78.20;;;;;;5088398;28;20038;-76
2022/06/24 12:39:37;;;;;;;8.85;2.40;;;30.90;79.10;;;;;;5087590;28;20031;-76
2022/06/24 12:42:03;;;;;;;7.82;2.28;;;31.10;79.90;;;;;;5086450;28;20032;-76
2022/06/24 12:44:47;;;;;;;9.68;2.75;;;30.80;79.30;;;;;;5085309;28;20489;-76
2022/06/24 12:52:57;;;;;;;8.45;2.53;;;30.80;78.90;;;;;;5078111;28;20119;-77
2022/06/24 12:55:23;;;;;;;11.55;2.83;;;31.00;79.30;;;;;;5087366;28;20020;-76
2022/06/24 12:57:49;;;;;;;8.13;3.00;;;31.10;78.50;;;;;;5085031;28;20051;-77
2022/06/24 13:00:16;;;;;;;9.90;2.60;;;30.90;78.00;;;;;;5088790;28;20032;-76